Time;durP1;ratioP1;P1;durP2;ratioP2;P2;SDS_P1;SDS_P2;PMS_P1;PMS_P2;Temp;Humidity;BMP_temperature;BMP_pressure;BME280_temperature;BME280_humidity;BME280_pressure;Samples;Min_cycle;Max_cycle;Signal;HPM_P1;HPM_P2
2020/12/09 00:02:18;;;;;;;42.60;23.85;;;2.90;99.90;;;;;;5039150;28;20041;-77
2020/12/09 00:05:08;;;;;;;42.35;23.48;;;2.80;99.90;;;;;;5026588;28;20114;-78
2020/12/09 00:07:35;;;;;;;38.50;21.40;;;2.80;99.90;;;;;;5035499;28;20049;-75
2020/12/09 00:10:02;;;;;;;37.95;22.02;;;2.70;99.90;;;;;;5043855;28;20136;-76
2020/12/09 00:12:31;;;;;;;44.25;23.55;;;2.70;99.90;;;;;;5017917;28;20041;-76
2020/12/09 00:14:58;;;;;;;41.33;23.35;;;2.70;99.90;;;;;;5028809;28;20144;-77
2020/12/09 00:17:43;;;;;;;40.80;23.13;;;2.60;99.90;;;;;;5004234;28;20076;-76
2020/12/09 00:20:29;;;;;;;48.75;25.25;;;2.60;99.90;;;;;;4988833;28;20053;-76
2020/12/09 00:22:55;;;;;;;42.80;24.35;;;2.50;99.90;;;;;;5019193;28;20037;-76
2020/12/09 00:25:20;;;;;;;50.55;25.98;;;2.50;99.90;;;;;;5031144;28;20033;-77
2020/12/09 00:28:06;;;;;;;42.70;23.25;;;2.50;99.90;;;;;;5017203;28;20435;-78
2020/12/09 00:30:32;;;;;;;44.42;24.10;;;2.50;99.90;;;;;;5047009;28;20038;-77
2020/12/09 00:33:18;;;;;;;40.47;24.48;;;2.50;99.90;;;;;;5016659;28;20045;-77
2020/12/09 00:35:44;;;;;;;;;;;2.40;99.90;;;;;;5045693;28;20049;-77
2020/12/09 00:38:10;;;;;;;43.20;23.98;;;2.40;99.90;;;;;;5034215;28;19932;-77
2020/12/09 00:40:36;;;;;;;40.70;24.27;;;2.30;99.90;;;;;;5023660;28;20125;-77
2020/12/09 00:43:22;;;;;;;48.85;24.33;;;2.30;99.90;;;;;;5014526;28;20047;-77
2020/12/09 00:45:47;;;;;;;46.03;24.38;;;2.30;99.90;;;;;;5031429;28;20041;-77
2020/12/09 00:48:33;;;;;;;47.63;24.52;;;2.20;99.90;;;;;;5015238;28;20120;-77
2020/12/09 00:50:59;;;;;;;46.90;22.55;;;2.20;99.90;;;;;;5047307;28;20120;-77
2020/12/09 00:53:26;;;;;;;49.05;25.65;;;2.20;99.90;;;;;;5017985;28;20056;-77
2020/12/09 00:55:54;;;;;;;49.65;26.67;;;2.20;99.90;;;;;;5026140;28;20064;-77
2020/12/09 00:58:19;;;;;;;46.88;24.05;;;2.20;99.90;;;;;;5027111;28;20128;-77
2020/12/09 01:00:45;;;;;;;56.15;27.92;;;2.20;99.90;;;;;;5025259;28;20119;-77
2020/12/09 01:03:31;;;;;;;44.30;22.85;;;2.20;99.90;;;;;;5029403;28;20128;-77
2020/12/09 01:05:58;;;;;;;41.35;24.35;;;2.20;99.90;;;;;;5036903;28;20117;-77
2020/12/09 01:08:43;;;;;;;48.20;27.35;;;2.20;99.90;;;;;;5021803;28;20376;-76
2020/12/09 01:11:09;;;;;;;49.72;25.35;;;2.20;99.90;;;;;;5036180;28;20076;-77
2020/12/09 01:13:35;;;;;;;48.58;25.85;;;2.20;99.90;;;;;;5020913;28;20120;-77
2020/12/09 01:16:21;;;;;;;45.22;24.33;;;2.20;99.90;;;;;;5018995;28;20053;-76
2020/12/09 01:18:49;;;;;;;45.40;24.35;;;2.20;99.90;;;;;;5037736;28;20431;-78
2020/12/09 01:21:15;;;;;;;49.35;25.13;;;2.20;99.90;;;;;;5051472;28;20496;-78
2020/12/09 01:23:40;;;;;;;44.08;25.58;;;2.20;99.90;;;;;;5036537;28;20119;-77
2020/12/09 01:26:10;;;;;;;52.63;27.02;;;2.30;99.90;;;;;;5033251;28;20033;-76
2020/12/09 01:28:56;;;;;;;45.03;24.60;;;2.30;99.90;;;;;;5036788;28;20049;-77
2020/12/09 01:31:23;;;;;;;50.50;27.00;;;2.30;99.90;;;;;;5049767;28;20490;-76
2020/12/09 01:33:48;;;;;;;52.33;27.67;;;2.30;99.90;;;;;;5030865;28;20052;-76
2020/12/09 01:36:24;;;;;;;52.33;27.95;;;2.40;99.90;;;;;;5049418;28;20048;-77
2020/12/09 01:38:51;;;;;;;48.20;25.00;;;2.40;99.90;;;;;;5049369;28;20037;-77
2020/12/09 01:41:22;;;;;;;54.28;27.27;;;2.50;99.90;;;;;;5051108;28;20497;-77
2020/12/09 01:44:08;;;;;;;51.53;26.98;;;2.50;99.90;;;;;;5035043;28;20044;-77
2020/12/09 01:46:34;;;;;;;51.05;28.33;;;2.50;99.90;;;;;;5048848;28;20083;-77
2020/12/09 01:49:01;;;;;;;54.45;27.88;;;2.50;99.90;;;;;;5029538;28;20083;-75
2020/12/09 01:51:47;;;;;;;56.47;30.15;;;2.60;99.90;;;;;;5036639;28;20075;-76
2020/12/09 01:54:12;;;;;;;54.45;29.58;;;2.60;99.90;;;;;;5049641;28;20494;-76
2020/12/09 01:56:38;;;;;;;50.40;29.15;;;2.70;99.90;;;;;;5044529;28;20475;-76
2020/12/09 01:59:04;;;;;;;49.05;27.23;;;2.70;99.90;;;;;;5032427;28;20052;-77
2020/12/09 02:01:32;;;;;;;53.03;29.35;;;2.70;99.90;;;;;;5043143;28;20091;-76
2020/12/09 02:04:19;;;;;;;55.50;28.88;;;2.80;99.90;;;;;;5035149;28;20463;-76
2020/12/09 02:06:45;;;;;;;47.97;27.73;;;2.80;99.90;;;;;;5031809;28;20072;-77
2020/12/09 02:09:10;;;;;;;;;;;2.80;99.90;;;;;;5050530;28;20033;-76
2020/12/09 02:11:36;;;;;;;51.60;27.35;;;2.80;99.90;;;;;;5043875;28;19943;-76
2020/12/09 02:14:02;;;;;;;50.85;27.20;;;2.80;99.90;;;;;;5050192;28;20482;-76
2020/12/09 02:16:28;;;;;;;53.72;27.42;;;2.90;99.90;;;;;;5049490;28;20033;-76
2020/12/09 02:19:13;;;;;;;49.97;27.70;;;2.90;99.90;;;;;;5031162;28;20064;-76
2020/12/09 02:21:39;;;;;;;52.53;26.50;;;2.90;99.90;;;;;;5024989;28;20045;-75
2020/12/09 02:24:05;;;;;;;50.03;26.02;;;3.00;99.90;;;;;;5045449;28;20033;-75
2020/12/09 02:26:31;;;;;;;51.33;27.83;;;2.90;99.90;;;;;;5032930;28;20037;-75
2020/12/09 02:29:16;;;;;;;47.60;26.35;;;3.00;99.90;;;;;;5014057;28;20049;-76
2020/12/09 02:31:42;;;;;;;54.72;28.50;;;3.00;99.90;;;;;;5044702;28;20037;-76
2020/12/09 02:34:28;;;;;;;49.85;27.20;;;3.00;99.90;;;;;;5041195;28;20041;-76
2020/12/09 02:36:54;;;;;;;;;;;3.10;99.90;;;;;;5012240;28;20410;-77
2020/12/09 02:39:32;;;;;;;48.15;28.42;;;3.00;99.90;;;;;;5016643;28;19917;-77
2020/12/09 02:41:58;;;;;;;50.65;26.50;;;3.00;99.90;;;;;;5049610;28;20036;-77
2020/12/09 02:44:24;;;;;;;45.47;25.92;;;3.00;99.90;;;;;;5051398;28;20037;-77
2020/12/09 02:46:50;;;;;;;48.55;28.35;;;3.00;99.90;;;;;;5047741;28;20067;-76
2020/12/09 02:49:16;;;;;;;49.97;28.90;;;3.10;99.90;;;;;;5031339;28;20064;-76
2020/12/09 02:51:41;;;;;;;48.95;26.02;;;3.00;99.90;;;;;;5035045;28;20075;-76
2020/12/09 02:54:07;;;;;;;49.75;27.10;;;3.10;99.90;;;;;;5053015;28;20107;-75
2020/12/09 02:56:33;;;;;;;48.10;27.77;;;3.10;99.90;;;;;;5038793;28;20116;-76
2020/12/09 02:59:19;;;;;;;48.78;27.17;;;3.10;99.90;;;;;;5035716;28;20490;-76
2020/12/09 03:01:44;;;;;;;48.30;27.67;;;3.10;99.90;;;;;;5036308;28;20053;-76
2020/12/09 03:04:10;;;;;;;51.92;30.35;;;3.10;99.90;;;;;;5041993;28;20033;-75
2020/12/09 03:06:36;;;;;;;50.63;27.70;;;3.10;99.90;;;;;;5042625;28;20032;-75
2020/12/09 03:09:22;;;;;;;49.63;27.90;;;3.10;99.90;;;;;;5037400;28;20036;-75
2020/12/09 03:11:48;;;;;;;45.38;26.73;;;3.10;99.90;;;;;;5052944;28;20044;-76
2020/12/09 03:14:13;;;;;;;51.03;27.17;;;3.10;99.90;;;;;;5031986;28;20029;-76
2020/12/09 03:16:39;;;;;;;42.85;25.00;;;3.10;99.90;;;;;;5052888;28;20140;-76
2020/12/09 03:19:05;;;;;;;48.03;27.77;;;3.10;99.90;;;;;;5035206;28;20091;-76
2020/12/09 03:21:31;;;;;;;50.45;26.85;;;3.10;99.90;;;;;;5051817;28;20035;-76
2020/12/09 03:24:17;;;;;;;44.55;26.70;;;3.10;99.90;;;;;;5026546;28;20493;-76
2020/12/09 03:27:03;;;;;;;47.25;26.20;;;3.10;99.90;;;;;;5024873;28;20123;-76
2020/12/09 03:29:29;;;;;;;46.67;25.27;;;3.10;99.90;;;;;;5053072;28;20120;-75
2020/12/09 03:32:15;;;;;;;44.67;25.77;;;3.10;99.90;;;;;;5038416;28;20047;-75
2020/12/09 03:35:00;;;;;;;50.20;27.73;;;3.10;99.90;;;;;;5035286;28;20132;-75
2020/12/09 03:37:27;;;;;;;47.15;25.23;;;3.10;99.90;;;;;;5025703;28;20151;-75
2020/12/09 03:39:52;;;;;;;50.40;25.83;;;3.10;99.90;;;;;;5019745;28;20113;-76
2020/12/09 03:42:18;;;;;;;48.03;27.73;;;3.10;99.90;;;;;;5042277;28;20041;-76
2020/12/09 03:44:44;;;;;;;48.17;27.77;;;3.10;99.90;;;;;;5053174;28;20076;-76
2020/12/09 03:47:30;;;;;;;49.00;27.38;;;3.10;99.90;;;;;;5037560;28;20037;-76
2020/12/09 03:50:15;;;;;;;46.58;27.02;;;3.10;99.90;;;;;;5041202;28;20044;-77
2020/12/09 03:52:41;;;;;;;53.30;26.83;;;3.30;99.90;;;;;;5024124;28;20044;-76
2020/12/09 03:55:07;;;;;;;51.45;28.45;;;3.10;99.90;;;;;;5015558;28;20117;-77
2020/12/09 03:57:32;;;;;;;53.67;28.77;;;3.10;99.90;;;;;;5036342;28;20033;-77
2020/12/09 04:00:19;;;;;;;47.42;26.98;;;3.10;99.90;;;;;;5028633;28;20080;-76
2020/12/09 04:02:45;;;;;;;50.95;27.63;;;3.10;99.90;;;;;;5046892;28;20091;-76
2020/12/09 04:05:11;;;;;;;46.78;26.73;;;3.20;99.90;;;;;;5038716;28;20395;-76
2020/12/09 04:07:57;;;;;;;47.38;26.75;;;3.20;99.90;;;;;;5030961;28;20041;-76
2020/12/09 04:10:23;;;;;;;45.78;26.15;;;3.20;99.90;;;;;;5050762;28;20045;-76
2020/12/09 04:12:49;;;;;;;50.35;27.10;;;3.10;99.90;;;;;;5044850;28;20517;-76
2020/12/09 04:15:16;;;;;;;48.50;28.80;;;3.10;99.90;;;;;;5046305;28;20072;-76
2020/12/09 04:17:41;;;;;;;50.67;27.60;;;3.10;99.90;;;;;;5050696;28;20036;-76
2020/12/09 04:20:08;;;;;;;49.40;28.60;;;3.10;99.90;;;;;;5038501;28;20501;-77
2020/12/09 04:22:34;;;;;;;47.50;26.77;;;3.20;99.90;;;;;;5028620;28;20044;-77
2020/12/09 04:25:00;;;;;;;52.60;27.08;;;3.10;99.90;;;;;;5049623;28;20148;-76
2020/12/09 04:27:26;;;;;;;;;;;3.10;99.90;;;;;;5043698;28;20045;-77
2020/12/09 04:29:52;;;;;;;50.58;26.52;;;3.10;99.90;;;;;;5044103;28;19928;-76
2020/12/09 04:32:18;;;;;;;51.50;27.38;;;3.20;99.90;;;;;;5045762;28;20037;-76
2020/12/09 04:35:04;;;;;;;52.00;27.00;;;3.10;99.90;;;;;;5043453;28;20045;-76
2020/12/09 04:37:30;;;;;;;50.97;27.70;;;3.10;99.90;;;;;;5041745;28;20038;-76
2020/12/09 04:39:57;;;;;;;50.45;27.23;;;3.10;99.90;;;;;;5015518;28;20049;-75
2020/12/09 04:42:24;;;;;;;51.13;27.85;;;3.00;99.90;;;;;;5050326;28;20057;-75
2020/12/09 04:44:52;;;;;;;50.30;27.10;;;3.10;99.90;;;;;;5048788;28;20091;-77
2020/12/09 04:47:24;;;;;;;51.33;27.35;;;3.00;99.90;;;;;;5051190;28;20041;-76
2020/12/09 04:50:19;;;;;;;48.17;29.20;;;3.00;99.90;;;;;;5050907;28;20055;-76
2020/12/09 04:53:04;;;;;;;55.28;28.48;;;3.00;99.90;;;;;;5046668;28;20060;-77
2020/12/09 04:55:56;;;;;;;51.28;27.25;;;2.90;99.90;;;;;;5031672;28;20048;-77
2020/12/09 04:58:45;;;;;;;53.38;28.77;;;2.90;99.90;;;;;;5018661;28;20044;-77
2020/12/09 05:01:15;;;;;;;58.67;29.48;;;2.90;99.90;;;;;;5050455;28;20041;-76
2020/12/09 05:03:43;;;;;;;55.72;28.63;;;2.90;99.90;;;;;;5033614;28;20248;-76
2020/12/09 05:06:11;;;;;;;53.53;29.05;;;2.90;99.90;;;;;;5044360;28;20060;-76
2020/12/09 05:08:41;;;;;;;57.17;30.02;;;3.00;99.90;;;;;;5043292;28;20040;-75
2020/12/09 05:11:07;;;;;;;52.75;29.80;;;3.00;99.90;;;;;;5044131;28;20057;-76
2020/12/09 05:13:37;;;;;;;58.00;30.15;;;3.50;99.90;;;;;;5030066;28;20060;-76
2020/12/09 05:16:25;;;;;;;55.50;29.63;;;3.00;99.90;;;;;;5033975;28;20045;-75
2020/12/09 05:18:58;;;;;;;60.25;29.92;;;3.00;99.90;;;;;;5031767;28;20517;-78
2020/12/09 05:21:25;;;;;;;56.10;29.55;;;3.10;99.90;;;;;;5027074;28;20041;-79
2020/12/09 05:23:57;;;;;;;61.67;30.95;;;3.10;99.90;;;;;;5019088;28;20072;-77
2020/12/09 05:26:40;;;;;;;56.85;29.85;;;3.10;99.90;;;;;;5039240;28;20552;-76
2020/12/09 05:29:12;;;;;;;61.50;30.58;;;3.10;99.90;;;;;;5030700;28;20060;-78
2020/12/09 05:31:43;;;;;;;54.83;30.13;;;3.10;99.90;;;;;;5044880;28;20033;-80
2020/12/09 05:34:21;;;;;;;56.88;29.48;;;3.10;99.90;;;;;;5031914;28;20151;-79
2020/12/09 05:36:48;;;;;;;55.42;29.02;;;3.20;99.90;;;;;;5046697;28;20390;-80
2020/12/09 05:39:48;;;;;;;61.53;31.58;;;3.20;99.90;;;;;;5029634;28;20056;-79
2020/12/09 05:42:34;;;;;;;61.05;32.13;;;3.20;99.90;;;;;;5029985;28;20122;-78
2020/12/09 05:44:59;;;;;;;61.33;31.90;;;3.20;99.90;;;;;;5037798;28;20466;-77
2020/12/09 05:47:25;;;;;;;55.95;31.35;;;3.20;99.90;;;;;;5048756;28;20033;-79
2020/12/09 05:49:51;;;;;;;56.83;29.85;;;3.20;99.90;;;;;;5046420;28;20111;-79
2020/12/09 05:52:21;;;;;;;55.95;31.52;;;3.20;99.90;;;;;;5033493;28;20041;-78
2020/12/09 05:55:06;;;;;;;53.55;30.17;;;3.20;99.90;;;;;;5034022;28;20131;-77
2020/12/09 05:57:32;;;;;;;54.55;27.95;;;3.30;99.90;;;;;;5033042;28;20510;-78
2020/12/09 06:00:18;;;;;;;49.95;27.80;;;3.30;99.90;;;;;;5036724;28;20483;-79
2020/12/09 06:02:44;;;;;;;57.50;29.10;;;3.30;99.90;;;;;;5032572;28;20033;-79
2020/12/09 06:05:29;;;;;;;56.30;30.63;;;3.30;99.90;;;;;;5035395;28;20037;-78
2020/12/09 06:07:55;;;;;;;54.67;28.25;;;3.30;99.90;;;;;;5034386;28;20505;-79
2020/12/09 06:10:21;;;;;;;59.80;29.77;;;3.30;99.90;;;;;;5050436;28;20576;-78
2020/12/09 06:13:07;;;;;;;66.47;30.80;;;3.30;99.90;;;;;;5014588;28;20125;-78
2020/12/09 06:15:52;;;;;;;61.83;31.92;;;3.30;99.90;;;;;;5045398;28;20073;-79
2020/12/09 06:18:18;;;;;;;61.78;30.65;;;3.30;99.90;;;;;;5027121;28;20056;-78
2020/12/09 06:21:05;;;;;;;65.50;31.77;;;3.30;99.90;;;;;;5038476;28;20492;-79
2020/12/09 06:23:54;;;;;;;59.13;32.63;;;3.30;99.90;;;;;;5028200;28;20049;-79
2020/12/09 06:26:20;;;;;;;65.10;32.95;;;3.30;99.90;;;;;;5043081;28;20078;-78
2020/12/09 06:28:50;;;;;;;72.78;35.13;;;3.30;99.90;;;;;;5051561;28;20041;-78
2020/12/09 06:31:17;;;;;;;63.47;32.63;;;3.90;99.90;;;;;;5045498;28;20505;-79
2020/12/09 06:33:45;;;;;;;66.55;33.53;;;3.30;99.90;;;;;;5044368;28;20072;-77
2020/12/09 06:36:16;;;;;;;63.95;33.08;;;3.30;99.90;;;;;;5046364;28;20063;-79
2020/12/09 06:39:08;;;;;;;64.15;32.20;;;3.30;99.90;;;;;;5031362;28;20226;-79
2020/12/09 06:41:46;;;;;;;63.17;32.03;;;3.30;99.90;;;;;;5030196;28;20533;-78
2020/12/09 06:44:15;;;;;;;70.07;34.65;;;3.30;99.90;;;;;;5046124;28;20137;-80
2020/12/09 06:47:01;;;;;;;70.25;33.90;;;4.10;99.90;;;;;;5038352;28;20049;-80
2020/12/09 06:49:29;;;;;;;64.07;31.30;;;3.20;99.90;;;;;;5040104;28;20386;-80
2020/12/09 06:51:57;;;;;;;62.05;32.08;;;3.20;99.90;;;;;;5031878;28;20132;-79
2020/12/09 06:54:46;;;;;;;64.95;33.42;;;3.20;99.90;;;;;;5045478;28;20048;-79
2020/12/09 06:57:15;;;;;;;63.55;32.00;;;3.10;99.90;;;;;;5036423;28;20080;-78
2020/12/09 06:59:43;;;;;;;62.67;32.00;;;3.20;99.90;;;;;;5031861;28;20045;-78
2020/12/09 07:02:10;;;;;;;67.43;32.13;;;3.20;99.90;;;;;;5043330;28;20051;-78
2020/12/09 07:04:53;;;;;;;;;;;3.20;99.90;;;;;;5042515;28;20479;-78
2020/12/09 07:07:39;;;;;;;62.03;31.77;;;3.10;99.90;;;;;;5042360;28;19923;-78
2020/12/09 07:10:18;;;;;;;63.17;31.85;;;3.10;99.90;;;;;;5047039;28;20051;-80
2020/12/09 07:12:50;;;;;;;63.25;30.90;;;3.10;99.90;;;;;;5040268;28;20033;-79
2020/12/09 07:15:38;;;;;;;68.72;34.45;;;3.10;99.90;;;;;;5027670;28;20048;-79
2020/12/09 07:18:24;;;;;;;68.90;34.00;;;3.10;99.90;;;;;;5014469;28;20048;-78
2020/12/09 07:21:09;;;;;;;66.03;33.20;;;3.10;99.90;;;;;;5011311;28;20101;-79
2020/12/09 07:23:39;;;;;;;64.65;33.67;;;3.10;99.90;;;;;;5045451;28;20044;-79
2020/12/09 07:26:05;;;;;;;67.43;33.83;;;3.10;99.90;;;;;;5025852;28;20047;-78
2020/12/09 07:28:33;;;;;;;69.25;34.42;;;3.10;99.90;;;;;;5024481;28;20033;-79
2020/12/09 07:31:07;;;;;;;72.85;35.22;;;3.10;99.90;;;;;;5021152;28;20399;-79
2020/12/09 07:34:02;;;;;;;77.00;36.05;;;3.10;99.90;;;;;;5031219;28;20132;-79
2020/12/09 07:36:50;;;;;;;69.47;35.97;;;3.00;99.90;;;;;;5032552;28;20056;-79
2020/12/09 07:39:36;;;;;;;70.65;34.38;;;3.00;99.90;;;;;;5050440;28;20041;-80
2020/12/09 07:42:03;;;;;;;68.00;33.05;;;3.00;99.90;;;;;;5051803;28;20502;-81
2020/12/09 07:44:31;;;;;;;72.63;34.30;;;3.00;99.90;;;;;;5026483;28;20056;-79
2020/12/09 07:47:00;;;;;;;73.28;34.05;;;3.00;99.90;;;;;;5037271;28;20040;-80
2020/12/09 07:49:26;;;;;;;78.07;36.15;;;3.00;99.90;;;;;;5029048;28;20048;-79
2020/12/09 07:51:53;;;;;;;76.18;36.35;;;3.00;99.90;;;;;;5043026;28;20107;-81
2020/12/09 07:54:20;;;;;;;72.32;34.50;;;3.00;99.90;;;;;;5026296;28;20041;-79
2020/12/09 07:57:06;;;;;;;77.20;35.30;;;3.00;99.90;;;;;;5035620;28;20179;-78
2020/12/09 07:59:32;;;;;;;73.93;35.28;;;2.90;99.90;;;;;;5042352;28;20060;-79
2020/12/09 08:02:16;;;;;;;77.28;37.38;;;2.90;99.90;;;;;;5030677;28;20041;-79
2020/12/09 08:04:42;;;;;;;80.95;36.58;;;3.00;99.90;;;;;;5036660;28;20045;-79
2020/12/09 08:07:16;;;;;;;82.53;36.40;;;3.00;99.90;;;;;;5041481;28;20063;-80
2020/12/09 08:09:42;;;;;;;82.28;36.33;;;3.00;99.90;;;;;;5047434;28;20107;-80
2020/12/09 08:12:08;;;;;;;84.40;38.53;;;3.00;99.90;;;;;;5048442;28;20037;-79
2020/12/09 08:14:34;;;;;;;77.20;36.63;;;3.00;99.90;;;;;;5028697;28;20040;-80
2020/12/09 08:16:59;;;;;;;82.68;38.72;;;3.10;99.90;;;;;;5048276;28;20037;-79
2020/12/09 08:20:05;;;;;;;91.65;38.30;;;3.00;99.90;;;;;;5006733;28;20061;-80
2020/12/09 08:22:31;;;;;;;90.80;40.15;;;3.00;99.90;;;;;;5034187;28;20049;-79
2020/12/09 08:25:08;;;;;;;81.18;38.35;;;3.00;99.90;;;;;;5019991;28;20406;-80
2020/12/09 08:27:43;;;;;;;84.20;36.22;;;3.10;99.90;;;;;;5039296;28;20037;-79
2020/12/09 08:30:35;;;;;;;99.75;39.40;;;3.30;99.90;;;;;;5018893;28;20041;-80
2020/12/09 08:33:13;;;;;;;79.95;36.35;;;3.10;99.90;;;;;;5025516;28;20059;-79
2020/12/09 08:36:00;;;;;;;79.50;37.88;;;3.10;99.90;;;;;;5006811;28;20076;-78
2020/12/09 08:38:28;;;;;;;90.70;38.58;;;3.10;99.90;;;;;;5029433;28;20075;-79
2020/12/09 08:40:55;;;;;;;79.50;35.53;;;3.00;99.90;;;;;;5040234;28;20049;-78
2020/12/09 08:43:25;;;;;;;77.93;36.17;;;3.10;99.90;;;;;;5028355;28;20048;-79
2020/12/09 08:45:51;;;;;;;87.38;38.33;;;3.00;99.90;;;;;;5027377;28;20030;-79
2020/12/09 08:48:18;;;;;;;78.82;38.10;;;3.10;99.90;;;;;;5028281;28;21010;-79
2020/12/09 08:51:03;;;;;;;79.10;34.30;;;3.10;99.90;;;;;;5028821;28;20048;-79
2020/12/09 08:53:48;;;;;;;88.30;38.08;;;3.10;99.90;;;;;;5035005;28;20075;-80
2020/12/09 08:56:34;;;;;;;86.22;38.28;;;3.10;99.90;;;;;;5029541;28;20136;-79
2020/12/09 08:59:20;;;;;;;92.35;39.85;;;3.20;99.90;;;;;;5017545;28;20053;-79
2020/12/09 09:02:06;;;;;;;91.07;40.03;;;3.20;99.90;;;;;;5028375;28;20114;-79
2020/12/09 09:04:35;;;;;;;91.03;38.45;;;3.20;99.90;;;;;;5043345;28;20045;-78
2020/12/09 09:07:01;;;;;;;77.35;36.05;;;3.30;99.90;;;;;;5021463;28;20041;-80
2020/12/09 09:09:27;;;;;;;81.35;36.90;;;3.30;99.90;;;;;;5046240;28;20041;-79
2020/12/09 09:12:13;;;;;;;77.57;35.10;;;3.30;99.90;;;;;;5013430;28;20116;-80
2020/12/09 09:14:59;;;;;;;81.32;36.03;;;3.30;99.90;;;;;;4995782;28;20049;-79
2020/12/09 09:17:45;;;;;;;74.60;36.17;;;3.40;99.90;;;;;;5025431;28;20110;-79
2020/12/09 09:20:31;;;;;;;77.82;34.78;;;3.70;99.90;;;;;;4999365;28;20049;-80
2020/12/09 09:23:17;;;;;;;64.47;31.33;;;3.50;99.90;;;;;;5017040;28;20056;-79
2020/12/09 09:25:42;;;;;;;70.82;33.30;;;3.50;99.90;;;;;;5023532;28;20033;-79
2020/12/09 09:28:28;;;;;;;73.30;34.83;;;3.50;99.90;;;;;;5012195;28;20049;-80
2020/12/09 09:30:54;;;;;;;76.78;33.90;;;3.50;99.90;;;;;;4999713;28;20323;-80
2020/12/09 09:33:20;;;;;;;78.10;34.65;;;3.60;99.90;;;;;;5024123;28;20398;-80
2020/12/09 09:35:46;;;;;;;76.90;35.20;;;3.60;99.90;;;;;;5019747;28;20045;-80
2020/12/09 09:38:31;;;;;;;74.38;35.08;;;3.70;99.90;;;;;;5002906;28;20041;-80
2020/12/09 09:41:17;;;;;;;65.93;32.65;;;3.70;99.90;;;;;;5017724;28;20053;-79
2020/12/09 09:44:04;;;;;;;72.83;33.20;;;3.70;99.90;;;;;;5013332;28;20056;-80
2020/12/09 09:46:29;;;;;;;71.32;33.83;;;3.70;99.90;;;;;;5044359;28;20136;-80
2020/12/09 09:48:55;;;;;;;75.60;34.40;;;3.90;99.90;;;;;;5037511;28;20056;-80
2020/12/09 09:51:41;;;;;;;68.13;33.95;;;3.80;99.90;;;;;;5044300;28;20115;-79
2020/12/09 09:54:07;;;;;;;87.05;41.30;;;3.80;99.90;;;;;;5045381;28;20510;-78
2020/12/09 09:56:34;;;;;;;74.72;34.83;;;3.80;99.90;;;;;;5043066;28;20095;-79
2020/12/09 09:58:59;;;;;;;63.47;32.40;;;3.80;99.90;;;;;;5020992;28;20041;-79
2020/12/09 10:01:25;;;;;;;60.50;31.20;;;3.80;99.90;;;;;;5048049;28;20048;-79
2020/12/09 10:03:51;;;;;;;59.35;31.90;;;3.80;99.90;;;;;;5045600;28;20037;-79
2020/12/09 10:06:37;;;;;;;69.13;30.45;;;3.80;99.90;;;;;;5008864;28;20057;-79
2020/12/09 10:09:23;;;;;;;66.97;30.60;;;3.80;99.90;;;;;;5026915;28;20049;-79
2020/12/09 10:11:49;;;;;;;67.65;32.85;;;3.80;99.90;;;;;;5026975;28;20061;-79
2020/12/09 10:14:35;;;;;;;74.32;34.60;;;3.70;99.90;;;;;;5016048;28;20045;-80
2020/12/09 10:17:01;;;;;;;76.22;36.97;;;3.50;99.90;;;;;;5040615;28;20124;-79
2020/12/09 10:19:27;;;;;;;74.18;35.15;;;3.70;99.90;;;;;;5044104;28;20120;-79
2020/12/09 10:22:16;;;;;;;72.53;35.92;;;3.50;99.90;;;;;;5033603;28;20390;-79
2020/12/09 10:24:41;;;;;;;76.70;35.30;;;3.60;99.90;;;;;;5033955;28;20082;-79
2020/12/09 10:27:07;;;;;;;70.53;32.97;;;3.60;99.90;;;;;;5049870;28;20137;-79
2020/12/09 10:29:53;;;;;;;74.65;35.22;;;3.70;99.90;;;;;;5034943;28;20187;-79
2020/12/09 10:32:19;;;;;;;78.88;35.92;;;3.60;99.90;;;;;;5042998;28;20142;-79
2020/12/09 10:35:05;;;;;;;91.20;37.53;;;3.70;99.90;;;;;;5020023;28;20056;-79
2020/12/09 10:37:31;;;;;;;76.53;35.25;;;3.80;99.90;;;;;;5047726;28;20037;-79
2020/12/09 10:39:57;;;;;;;83.15;36.15;;;3.80;99.90;;;;;;5043720;28;20321;-79
2020/12/09 10:42:23;;;;;;;77.28;34.60;;;3.80;99.90;;;;;;5014220;28;20610;-80
2020/12/09 10:44:51;;;;;;;81.90;38.80;;;3.70;99.90;;;;;;5046896;28;20055;-80
2020/12/09 10:47:17;;;;;;;71.90;35.25;;;3.70;99.90;;;;;;5014860;28;20064;-79
2020/12/09 10:49:44;;;;;;;75.53;36.17;;;3.80;99.90;;;;;;5039666;28;20496;-79
2020/12/09 10:52:11;;;;;;;79.80;36.42;;;3.80;99.90;;;;;;5037047;28;20140;-79
2020/12/09 10:54:58;;;;;;;79.60;35.08;;;3.80;99.90;;;;;;5016554;28;20123;-79
2020/12/09 10:57:24;;;;;;;82.57;36.63;;;3.80;99.90;;;;;;5048792;28;20029;-79
2020/12/09 10:59:50;;;;;;;80.95;36.92;;;3.80;99.90;;;;;;5047922;28;20049;-79
2020/12/09 11:02:16;;;;;;;70.07;34.50;;;3.80;99.90;;;;;;5044626;28;20045;-80
2020/12/09 11:04:41;;;;;;;69.38;34.38;;;3.80;99.90;;;;;;5030274;28;20033;-78
2020/12/09 11:07:27;;;;;;;74.22;33.72;;;3.90;99.90;;;;;;5039348;28;20042;-79
2020/12/09 11:09:53;;;;;;;71.63;34.38;;;3.90;99.90;;;;;;5014988;28;20533;-79
2020/12/09 11:12:19;;;;;;;68.47;32.33;;;4.00;99.90;;;;;;5047291;28;20044;-79
2020/12/09 11:14:45;;;;;;;56.40;29.77;;;4.00;99.90;;;;;;5025740;28;20044;-80
2020/12/09 11:17:34;;;;;;;65.93;30.23;;;4.10;99.90;;;;;;5024894;28;20044;-79
2020/12/09 11:20:01;;;;;;;64.55;30.67;;;4.00;99.90;;;;;;5043309;28;20503;-79
2020/12/09 11:22:48;;;;;;;67.57;32.22;;;4.10;99.90;;;;;;5036930;28;20095;-79
2020/12/09 11:25:14;;;;;;;74.55;34.97;;;4.10;99.90;;;;;;5041961;28;20080;-79
2020/12/09 11:27:40;;;;;;;66.63;32.33;;;4.10;99.90;;;;;;5016424;28;20052;-80
2020/12/09 11:30:06;;;;;;;61.53;30.50;;;4.20;99.90;;;;;;5020118;28;20053;-79
2020/12/09 11:32:35;;;;;;;73.07;31.90;;;4.20;99.90;;;;;;5040060;28;20033;-80
2020/12/09 11:35:21;;;;;;;61.47;31.35;;;4.30;99.90;;;;;;5017724;28;20202;-79
2020/12/09 11:37:47;;;;;;;62.67;29.08;;;4.20;99.90;;;;;;5002741;28;20045;-79
2020/12/09 11:40:12;;;;;;;68.30;32.72;;;4.20;99.90;;;;;;5045340;28;20076;-80
2020/12/09 11:42:38;;;;;;;64.05;32.47;;;4.10;99.90;;;;;;5030792;28;20055;-80
2020/12/09 11:45:06;;;;;;;70.53;33.15;;;4.10;99.90;;;;;;5047793;28;20079;-79
2020/12/09 11:47:34;;;;;;;61.85;31.83;;;4.10;99.90;;;;;;5046776;28;20036;-79
2020/12/09 11:50:03;;;;;;;65.72;32.67;;;4.10;99.90;;;;;;5044589;28;20041;-80
2020/12/09 11:52:28;;;;;;;65.55;30.25;;;4.10;99.90;;;;;;5047057;28;20530;-78
2020/12/09 11:54:54;;;;;;;60.92;29.52;;;4.20;99.90;;;;;;5028115;28;20118;-80
2020/12/09 11:57:20;;;;;;;52.92;29.40;;;4.20;99.90;;;;;;5044332;28;20048;-79
2020/12/09 12:00:06;;;;;;;50.17;26.73;;;4.30;99.90;;;;;;5029548;28;20131;-79
2020/12/09 12:02:52;;;;;;;53.05;28.65;;;4.40;99.90;;;;;;5017613;28;20107;-79
2020/12/09 12:05:40;;;;;;;53.25;26.48;;;4.40;99.90;;;;;;5011900;28;20411;-79
2020/12/09 12:08:26;;;;;;;52.83;27.05;;;4.40;99.90;;;;;;5034861;28;20131;-79
2020/12/09 12:10:52;;;;;;;58.53;29.70;;;4.40;99.90;;;;;;5036283;28;20136;-79
2020/12/09 12:13:37;;;;;;;51.10;26.45;;;4.50;99.90;;;;;;5020079;28;20457;-78
2020/12/09 12:16:03;;;;;;;58.55;28.38;;;4.50;99.90;;;;;;5017562;28;20126;-78
2020/12/09 12:18:29;;;;;;;56.55;27.23;;;4.30;99.90;;;;;;5027231;28;20056;-78
2020/12/09 12:20:55;;;;;;;55.13;26.23;;;4.30;99.90;;;;;;5043767;28;20116;-79
2020/12/09 12:23:20;;;;;;;54.15;26.95;;;4.30;99.90;;;;;;5026361;28;20041;-79
2020/12/09 12:25:47;;;;;;;48.63;25.95;;;4.30;99.90;;;;;;5039204;28;20089;-78
2020/12/09 12:28:33;;;;;;;58.08;27.75;;;4.30;99.90;;;;;;5002274;28;20516;-78
2020/12/09 12:31:00;;;;;;;48.20;25.48;;;4.30;99.90;;;;;;5036107;28;20051;-77
2020/12/09 12:33:26;;;;;;;53.45;27.15;;;4.30;99.90;;;;;;5045939;28;20048;-80
2020/12/09 12:35:52;;;;;;;49.58;26.95;;;4.30;99.90;;;;;;5024728;28;20034;-80
2020/12/09 12:38:18;;;;;;;55.47;26.08;;;4.30;99.90;;;;;;5038169;28;20036;-80
2020/12/09 12:40:44;;;;;;;56.35;28.67;;;4.30;99.90;;;;;;5049538;28;20041;-80
2020/12/09 12:43:09;;;;;;;48.40;26.60;;;4.30;99.90;;;;;;5029951;28;20033;-78
2020/12/09 12:45:59;;;;;;;46.20;24.20;;;4.20;99.90;;;;;;5033230;28;20051;-79
2020/12/09 12:48:25;;;;;;;47.78;26.17;;;4.10;99.90;;;;;;5041019;28;20068;-79
2020/12/09 12:50:51;;;;;;;46.83;26.05;;;4.10;99.90;;;;;;5039296;28;20033;-79
2020/12/09 12:53:18;;;;;;;51.28;25.20;;;4.10;99.90;;;;;;5042490;28;20065;-81
2020/12/09 12:55:44;;;;;;;47.40;24.88;;;4.10;99.90;;;;;;5009882;28;20239;-78
2020/12/09 12:58:09;;;;;;;48.10;23.67;;;4.10;99.90;;;;;;5044642;28;20399;-79
2020/12/09 13:00:35;;;;;;;46.28;23.70;;;4.10;99.90;;;;;;5028158;28;20064;-81
2020/12/09 13:03:01;;;;;;;43.67;23.73;;;4.00;99.90;;;;;;5041869;28;20037;-79
2020/12/09 13:05:27;;;;;;;44.60;23.48;;;4.00;99.90;;;;;;5043595;28;20071;-78
2020/12/09 13:07:53;;;;;;;45.13;23.75;;;4.00;99.90;;;;;;5044694;28;20123;-78